Terminal Aerodrome Forecast
Issued by NWS Binghamton, NY

Home | Current Version | Previous Version | Text Only | Print | Product List | Glossary On
Versions: 1 2 3 4 5 6 7 8 9 10 11 12 13 14 15 16 17 18 19
000
FTUS41 KBGM 260500
TAFAVP
TAF
KAVP 260533Z 2606/2706 33003KT P6SM OVC200
     FM261100 01005KT P6SM OVC050
      TEMPO 2611/2613 2SM -SN OVC015
     FM261300 03005KT 3/4SM -SN OVC012
     FM261500 03005KT 1/2SM SN OVC009
     FM270100 32008KT 2SM -SN OVC018=

USA.gov is the U.S. government's official web portal to all federal, state and local government web resources and services.